createdAt,value
2022-09-10T00:01:19.848Z,21.53
2022-09-10T00:03:49.994Z,21.12
2022-09-10T00:06:18.890Z,20.93
2022-09-10T00:08:47.544Z,21.27
2022-09-10T00:11:15.577Z,21.03
2022-09-10T00:13:43.161Z,21.02
2022-09-10T00:16:13.431Z,21.03
2022-09-10T00:18:43.350Z,20.85
2022-09-10T00:21:13.130Z,20.93
2022-09-10T00:23:40.782Z,21.16
2022-09-10T00:26:17.198Z,21.24
2022-09-10T00:28:45.472Z,21.55
2022-09-10T00:31:13.403Z,21.14
2022-09-10T00:33:41.940Z,21.23
2022-09-10T00:36:19.416Z,21.27
2022-09-10T00:38:46.915Z,21.07
2022-09-10T00:41:15.776Z,21.05
2022-09-10T00:44:35.713Z,21.41
2022-09-10T00:47:09.338Z,21.67
2022-09-10T00:49:40.272Z,21.34
2022-09-10T00:52:08.006Z,20.95
2022-09-10T00:54:36.857Z,21.08
2022-09-10T00:57:08.468Z,20.90
2022-09-10T00:59:36.560Z,20.94
2022-09-10T01:02:04.090Z,20.65
2022-09-10T01:04:32.463Z,21.14
2022-09-10T01:07:01.288Z,21.21
2022-09-10T01:09:28.819Z,21.17
2022-09-10T01:12:15.177Z,21.12
2022-09-10T01:15:03.087Z,21.40
2022-09-10T01:17:41.901Z,21.43
2022-09-10T01:20:36.091Z,20.92
2022-09-10T01:23:31.357Z,20.92
2022-09-10T01:26:25.619Z,20.68
2022-09-10T01:29:02.556Z,20.86
2022-09-10T01:31:45.883Z,20.82
2022-09-10T01:34:24.694Z,20.56
2022-09-10T01:36:54.724Z,20.42
2022-09-10T01:39:23.998Z,20.35
2022-09-10T01:41:54.437Z,20.62
2022-09-10T01:44:44.998Z,20.77
2022-09-10T01:47:32.223Z,20.41
2022-09-10T01:50:12.941Z,20.76
2022-09-10T01:53:02.104Z,20.88
2022-09-10T01:55:34.154Z,20.84
2022-09-10T01:58:11.931Z,20.59
2022-09-10T02:00:46.977Z,19.95
2022-09-10T02:03:18.061Z,20.18
2022-09-10T02:05:49.127Z,19.96
2022-09-10T02:08:37.815Z,20.22
2022-09-10T02:11:06.982Z,20.28
2022-09-10T02:13:35.849Z,19.66
2022-09-10T02:16:06.925Z,20.25
2022-09-10T02:18:37.319Z,19.63
2022-09-10T02:21:04.858Z,19.96
2022-09-10T02:23:41.448Z,19.71
2022-09-10T02:26:09.485Z,19.98
2022-09-10T02:28:37.770Z,19.38
2022-09-10T02:31:05.220Z,18.95
2022-09-10T02:33:32.556Z,19.11
2022-09-10T02:36:02.023Z,19.74
2022-09-10T02:38:30.144Z,19.72
2022-09-10T02:40:59.223Z,19.48
2022-09-10T02:43:27.452Z,19.38
2022-09-10T02:45:58.557Z,19.53
2022-09-10T02:48:27.474Z,19.00
2022-09-10T02:50:57.362Z,19.36
2022-09-10T02:53:26.426Z,18.96
2022-09-10T02:55:54.403Z,19.13
2022-09-10T02:58:21.996Z,18.71
2022-09-10T03:00:50.240Z,18.69
2022-09-10T03:03:17.968Z,18.44
2022-09-10T03:05:45.571Z,18.50
2022-09-10T03:08:14.314Z,18.57
2022-09-10T03:10:43.049Z,19.12
2022-09-10T03:13:10.626Z,19.03
2022-09-10T03:15:38.248Z,19.30
2022-09-10T03:18:06.745Z,19.18
2022-09-10T03:20:36.527Z,18.96
2022-09-10T03:23:03.867Z,18.83
2022-09-10T03:25:31.207Z,18.90
2022-09-10T03:27:59.773Z,19.01
2022-09-10T03:30:27.601Z,19.44
2022-09-10T03:32:55.512Z,18.94
2022-09-10T03:35:23.219Z,18.75
2022-09-10T03:37:50.726Z,18.70
2022-09-10T03:40:18.126Z,18.67
2022-09-10T03:42:46.222Z,19.05
2022-09-10T03:45:13.817Z,18.97
2022-09-10T03:47:41.247Z,18.94
2022-09-10T03:50:09.109Z,19.02
2022-09-10T03:52:36.533Z,19.22
2022-09-10T03:55:04.104Z,18.89
2022-09-10T03:57:31.723Z,18.21
2022-09-10T03:59:59.228Z,18.53
2022-09-10T04:02:26.607Z,18.76
2022-09-10T04:04:54.540Z,18.36
2022-09-10T04:07:21.845Z,19.02
2022-09-10T04:09:49.964Z,18.92
2022-09-10T04:12:17.828Z,18.90
2022-09-10T04:14:46.623Z,18.98
2022-09-10T04:17:14.139Z,18.95
2022-09-10T04:19:42.320Z,18.02
2022-09-10T04:22:09.736Z,18.57
2022-09-10T04:24:37.976Z,18.76
2022-09-10T04:27:06.389Z,18.63
2022-09-10T04:29:33.788Z,18.92
2022-09-10T04:32:01.455Z,18.44
2022-09-10T04:34:29.415Z,18.29
2022-09-10T04:36:56.790Z,18.70
2022-09-10T04:39:24.342Z,18.44
2022-09-10T04:41:51.927Z,18.65
2022-09-10T04:44:20.103Z,18.47
2022-09-10T04:46:47.876Z,18.17
2022-09-10T04:49:15.505Z,18.56
2022-09-10T04:51:43.220Z,18.41
2022-09-10T04:54:13.548Z,18.05
2022-09-10T04:56:41.539Z,17.55
2022-09-10T04:59:10.812Z,17.97
2022-09-10T05:01:38.237Z,17.90
2022-09-10T05:04:06.113Z,17.30
2022-09-10T05:06:33.753Z,18.02
2022-09-10T05:09:01.358Z,18.37
2022-09-10T05:11:29.411Z,18.07
2022-09-10T05:13:56.743Z,18.24
2022-09-10T05:16:24.762Z,17.77
2022-09-10T05:18:53.263Z,17.38
2022-09-10T05:21:20.706Z,17.77
2022-09-10T05:23:48.089Z,18.24
2022-09-10T05:26:15.685Z,18.88
2022-09-10T05:28:43.079Z,18.56
2022-09-10T05:31:11.295Z,19.25
2022-09-10T05:33:40.723Z,18.93
2022-09-10T05:36:11.660Z,19.04
2022-09-10T05:38:40.216Z,18.77
2022-09-10T05:41:11.517Z,19.10
2022-09-10T05:43:41.933Z,19.16
2022-09-10T05:46:10.412Z,19.58
2022-09-10T05:48:41.602Z,19.17
2022-09-10T05:51:09.836Z,19.17
2022-09-10T05:53:38.285Z,19.25
2022-09-10T05:56:07.346Z,18.55
2022-09-10T05:58:35.243Z,18.65
2022-09-10T06:01:02.671Z,18.23
2022-09-10T06:03:31.448Z,19.12
2022-09-10T06:05:59.013Z,18.64
2022-09-10T06:08:27.913Z,19.36
2022-09-10T06:11:05.117Z,19.34
2022-09-10T06:13:35.239Z,18.99
2022-09-10T06:16:05.010Z,18.83
2022-09-10T06:18:33.733Z,18.91
2022-09-10T06:21:06.813Z,19.16
2022-09-10T06:23:36.192Z,19.02
2022-09-10T06:26:09.554Z,18.85
2022-09-10T06:28:37.463Z,18.49
2022-09-10T06:31:06.110Z,18.44
2022-09-10T06:33:34.604Z,19.06
2022-09-10T06:36:03.338Z,19.48
2022-09-10T06:38:33.150Z,19.16
2022-09-10T06:41:04.783Z,19.88
2022-09-10T06:43:36.253Z,18.80
2022-09-10T06:49:11.331Z,18.71
2022-09-10T06:51:39.808Z,19.16
2022-09-10T06:54:08.571Z,19.07
2022-09-10T06:56:36.232Z,18.59
2022-09-10T06:59:04.247Z,18.30
2022-09-10T07:01:31.758Z,18.47
2022-09-10T07:04:01.017Z,18.45
2022-09-10T07:06:35.117Z,18.53
2022-09-10T07:09:04.497Z,18.65
2022-09-10T07:11:32.756Z,18.87
2022-09-10T07:14:01.501Z,19.60
2022-09-10T07:16:29.635Z,18.95
2022-09-10T07:18:59.382Z,19.09
2022-09-10T07:21:28.497Z,18.62
2022-09-10T07:23:58.495Z,18.56
2022-09-10T07:26:26.221Z,19.24
2022-09-10T07:28:53.998Z,19.59
2022-09-10T07:31:28.125Z,19.60
2022-09-10T07:34:00.623Z,19.66
2022-09-10T07:36:28.620Z,19.95
2022-09-10T07:39:01.829Z,20.17
2022-09-10T07:41:31.901Z,20.18
2022-09-10T07:43:59.957Z,19.89
2022-09-10T07:46:28.449Z,19.62
2022-09-10T07:48:58.629Z,19.17
2022-09-10T07:51:28.360Z,19.79
2022-09-10T07:53:58.644Z,19.28
2022-09-10T07:56:27.866Z,19.65
2022-09-10T07:58:57.550Z,19.88
2022-09-10T08:01:27.221Z,19.69
2022-09-10T08:03:58.714Z,19.83
2022-09-10T08:06:26.380Z,19.99
2022-09-10T08:08:54.029Z,20.27
2022-09-10T08:11:21.984Z,19.47
2022-09-10T08:13:51.603Z,20.33
2022-09-10T08:16:23.028Z,19.88
2022-09-10T08:18:51.548Z,19.40
2022-09-10T08:21:19.751Z,20.18
2022-09-10T08:23:51.696Z,20.32
2022-09-10T08:26:23.646Z,19.86
2022-09-10T08:28:52.675Z,19.80
2022-09-10T08:31:20.350Z,20.46
2022-09-10T08:33:50.476Z,20.07
2022-09-10T08:36:18.704Z,20.32
2022-09-10T08:38:46.473Z,19.81
2022-09-10T08:41:41.176Z,20.27
2022-09-10T08:44:08.955Z,20.03
2022-09-10T08:46:45.250Z,20.24
2022-09-10T08:49:36.834Z,20.08
2022-09-10T08:52:32.025Z,19.65
2022-09-10T08:55:02.081Z,20.13
2022-09-10T08:57:37.000Z,19.94
2022-09-10T09:00:06.554Z,19.51
2022-09-10T09:03:16.178Z,19.27
2022-09-10T09:05:51.352Z,19.82
2022-09-10T09:08:33.994Z,20.07
2022-09-10T09:11:20.441Z,19.74
2022-09-10T09:14:33.513Z,20.05
2022-09-10T09:17:27.402Z,20.53
2022-09-10T09:20:12.165Z,21.04
2022-09-10T09:22:47.712Z,20.94
2022-09-10T09:25:35.214Z,21.10
2022-09-10T09:28:03.617Z,21.15
2022-09-10T09:30:39.121Z,21.09
2022-09-10T09:33:16.360Z,21.39
2022-09-10T09:36:04.192Z,21.73
2022-09-10T09:38:39.012Z,21.63
2022-09-10T09:41:26.746Z,21.79
2022-09-10T09:44:07.877Z,21.83
2022-09-10T09:46:35.222Z,21.89
2022-09-10T09:49:03.978Z,22.05
2022-09-10T09:51:35.873Z,22.57
2022-09-10T09:56:59.079Z,23.06
2022-09-10T09:59:30.560Z,23.25
2022-09-10T10:02:09.634Z,23.27
2022-09-10T10:04:41.979Z,23.53
2022-09-10T10:07:11.876Z,23.59
2022-09-10T10:09:43.284Z,23.82
2022-09-10T10:12:19.804Z,24.56
2022-09-10T10:14:47.752Z,24.22
2022-09-10T10:17:51.296Z,24.15
2022-09-10T10:20:18.913Z,24.30
2022-09-10T10:22:48.679Z,24.01
2022-09-10T10:25:36.533Z,24.24
2022-09-10T10:28:14.321Z,24.04
2022-09-10T10:30:41.737Z,23.98
2022-09-10T10:33:19.254Z,24.57
2022-09-10T10:36:07.507Z,24.66
2022-09-10T10:38:37.750Z,24.08
2022-09-10T10:41:11.559Z,24.62
2022-09-10T10:44:04.355Z,25.14
2022-09-10T10:46:44.662Z,24.96
2022-09-10T10:49:33.339Z,24.72
2022-09-10T10:52:03.961Z,24.46
2022-09-10T10:54:47.781Z,24.63
2022-09-10T10:57:20.686Z,24.63
2022-09-10T11:00:14.098Z,24.88
2022-09-10T11:02:54.538Z,24.59
2022-09-10T11:05:35.179Z,24.89
2022-09-10T11:08:06.851Z,24.53
2022-09-10T11:10:39.543Z,24.76
2022-09-10T11:13:21.937Z,25.44
2022-09-10T11:16:01.373Z,25.76
2022-09-10T11:18:37.161Z,25.57
2022-09-10T11:21:18.209Z,25.16
2022-09-10T11:24:06.005Z,24.92
2022-09-10T11:26:43.371Z,24.51
2022-09-10T11:29:35.537Z,24.91
2022-09-10T11:32:23.595Z,24.39
2022-09-10T11:34:59.824Z,24.40
2022-09-10T11:37:54.069Z,24.51
2022-09-10T11:40:41.314Z,24.89
2022-09-10T11:43:33.903Z,24.90
2022-09-10T11:46:04.675Z,24.21
2022-09-10T11:49:01.800Z,25.21
2022-09-10T11:51:34.306Z,25.22
2022-09-10T11:54:04.481Z,25.28
2022-09-10T11:56:40.724Z,24.63
2022-09-10T11:59:14.592Z,25.55
2022-09-10T12:02:02.579Z,25.97
2022-09-10T12:05:07.899Z,25.44
2022-09-10T12:07:54.756Z,26.01
2022-09-10T12:10:40.744Z,26.20
2022-09-10T12:13:17.374Z,25.81
2022-09-10T12:15:57.837Z,26.10
2022-09-10T12:18:29.102Z,25.34
2022-09-10T12:21:05.780Z,26.28
2022-09-10T12:23:35.527Z,25.56
2022-09-10T12:26:09.969Z,25.49
2022-09-10T12:28:43.017Z,25.60
2022-09-10T12:31:16.181Z,26.11
2022-09-10T12:33:46.479Z,26.30
2022-09-10T12:36:26.283Z,26.43
2022-09-10T12:39:16.442Z,25.88
2022-09-10T12:41:43.878Z,25.31
2022-09-10T12:44:36.114Z,25.93
2022-09-10T12:47:18.631Z,25.28
2022-09-10T12:49:55.800Z,25.64
2022-09-10T12:52:26.516Z,25.54
2022-09-10T12:55:14.968Z,25.38
2022-09-10T12:57:54.445Z,25.64
2022-09-10T13:00:23.228Z,25.84
2022-09-10T13:03:09.103Z,25.66
2022-09-10T13:05:51.348Z,25.74
2022-09-10T13:08:25.783Z,25.86
2022-09-10T13:11:01.916Z,26.02
2022-09-10T13:13:34.596Z,25.79
2022-09-10T13:16:02.931Z,24.67
2022-09-10T13:18:33.975Z,25.15
2022-09-10T13:21:27.483Z,25.32
2022-09-10T13:23:57.165Z,25.19
2022-09-10T13:26:38.347Z,25.55
2022-09-10T13:29:11.423Z,25.74
2022-09-10T13:31:45.366Z,25.14
2022-09-10T13:34:15.842Z,25.37
2022-09-10T13:37:10.006Z,25.00
2022-09-10T13:40:08.668Z,25.77
2022-09-10T13:43:15.410Z,25.08
2022-09-10T13:45:49.710Z,25.71
2022-09-10T13:48:29.079Z,25.28
2022-09-10T13:51:13.678Z,25.40
2022-09-10T13:53:44.185Z,25.74
2022-09-10T13:56:33.400Z,25.08
2022-09-10T13:59:02.263Z,25.14
2022-09-10T14:01:49.720Z,24.77
2022-09-10T14:04:32.071Z,25.21
2022-09-10T14:07:25.580Z,25.09
2022-09-10T14:10:00.625Z,24.36
2022-09-10T14:12:29.698Z,24.69
2022-09-10T14:14:59.960Z,25.12
2022-09-10T14:17:50.716Z,24.88
2022-09-10T14:20:28.401Z,24.54
2022-09-10T14:23:05.435Z,25.12
2022-09-10T14:25:38.662Z,25.40
2022-09-10T14:28:19.639Z,24.92
2022-09-10T14:30:48.891Z,25.17
2022-09-10T14:33:28.302Z,25.66
2022-09-10T14:35:58.173Z,25.90
2022-09-10T14:38:30.990Z,25.99
2022-09-10T14:41:08.510Z,25.73
2022-09-10T14:43:39.018Z,25.84
2022-09-10T14:46:08.306Z,25.90
2022-09-10T14:48:38.722Z,25.75
2022-09-10T14:51:12.809Z,25.43
2022-09-10T14:53:42.021Z,25.13
2022-09-10T14:56:24.650Z,25.55
2022-09-10T14:58:57.538Z,25.29
2022-09-10T15:01:25.427Z,25.48
2022-09-10T15:03:53.370Z,25.51
2022-09-10T15:06:26.040Z,25.76
2022-09-10T15:08:56.207Z,25.48
2022-09-10T15:11:25.895Z,24.91
2022-09-10T15:13:56.078Z,24.60
2022-09-10T15:16:23.793Z,24.94
2022-09-10T15:18:51.131Z,24.89
2022-09-10T15:21:18.914Z,25.29
2022-09-10T15:23:48.240Z,25.34
2022-09-10T15:26:15.692Z,25.12
2022-09-10T15:28:43.041Z,24.94
2022-09-10T15:31:10.988Z,24.81
2022-09-10T15:33:38.427Z,24.97
2022-09-10T15:36:06.295Z,24.95
2022-09-10T15:38:33.998Z,24.59
2022-09-10T15:41:12.921Z,24.34
2022-09-10T15:43:43.069Z,24.95
2022-09-10T15:46:12.226Z,24.66
2022-09-10T15:48:40.062Z,24.82
2022-09-10T15:51:13.791Z,24.92
2022-09-10T15:53:42.311Z,24.56
2022-09-10T15:56:11.154Z,24.45
2022-09-10T15:58:39.136Z,24.73
2022-09-10T16:01:15.146Z,24.66
2022-09-10T16:03:50.166Z,24.17
2022-09-10T16:06:20.667Z,24.22
2022-09-10T16:08:50.054Z,24.18
2022-09-10T16:11:18.212Z,24.08
2022-09-10T16:13:46.163Z,24.13
2022-09-10T16:16:19.363Z,23.89
2022-09-10T16:18:53.109Z,23.69
2022-09-10T16:21:26.229Z,24.10
2022-09-10T16:23:55.708Z,24.18
2022-09-10T16:26:26.124Z,24.21
2022-09-10T16:28:56.265Z,24.39
2022-09-10T16:31:27.644Z,24.16
2022-09-10T16:33:58.670Z,23.97
2022-09-10T16:36:26.715Z,23.83
2022-09-10T16:38:57.912Z,23.66
2022-09-10T16:41:25.836Z,23.93
2022-09-10T16:43:53.774Z,23.87
2022-09-10T16:46:21.455Z,24.13
2022-09-10T16:48:51.771Z,23.86
2022-09-10T16:51:20.773Z,23.80
2022-09-10T16:53:55.807Z,23.45
2022-09-10T16:56:24.691Z,23.82
2022-09-10T16:58:52.145Z,23.64
2022-09-10T17:01:20.799Z,23.97
2022-09-10T17:03:52.401Z,23.89
2022-09-10T17:06:21.880Z,23.73
2022-09-10T17:08:50.160Z,23.58
2022-09-10T17:11:19.098Z,23.50
2022-09-10T17:13:46.805Z,23.13
2022-09-10T17:16:16.896Z,23.24
2022-09-10T17:18:44.923Z,22.84
2022-09-10T17:21:13.296Z,23.17
2022-09-10T17:23:41.565Z,23.10
2022-09-10T17:26:09.400Z,22.56
2022-09-10T17:28:37.242Z,22.36
2022-09-10T17:31:05.152Z,22.81
2022-09-10T17:33:33.506Z,22.65
2022-09-10T17:36:03.437Z,22.98
2022-09-10T17:38:33.258Z,23.04
2022-09-10T17:41:03.027Z,22.55
2022-09-10T17:43:34.991Z,22.37
2022-09-10T17:46:04.178Z,22.31
2022-09-10T17:48:32.646Z,22.02
2022-09-10T17:51:00.165Z,22.28
2022-09-10T17:53:28.108Z,22.42
2022-09-10T17:56:01.700Z,22.33
2022-09-10T17:58:29.190Z,22.09
2022-09-10T18:00:59.968Z,21.71
2022-09-10T18:03:28.357Z,22.15
2022-09-10T18:05:57.011Z,22.28
2022-09-10T18:08:24.312Z,21.94
2022-09-10T18:11:00.998Z,21.89
2022-09-10T18:13:29.495Z,21.79
2022-09-10T18:15:57.142Z,22.20
2022-09-10T18:18:24.646Z,21.62
2022-09-10T18:20:52.030Z,21.86
2022-09-10T18:23:19.745Z,22.01
2022-09-10T18:25:49.926Z,21.29
2022-09-10T18:28:17.735Z,21.51
2022-09-10T18:30:45.939Z,21.68
2022-09-10T18:33:14.877Z,21.11
2022-09-10T18:35:43.023Z,21.44
2022-09-10T18:38:10.757Z,21.50
2022-09-10T18:40:41.885Z,21.58
2022-09-10T18:43:12.419Z,21.44
2022-09-10T18:45:41.465Z,20.64
2022-09-10T18:48:09.692Z,20.57
2022-09-10T18:50:40.854Z,20.07
2022-09-10T18:53:09.585Z,20.21
2022-09-10T18:55:38.976Z,20.70
2022-09-10T18:58:07.716Z,20.86
2022-09-10T19:00:35.617Z,20.91
2022-09-10T19:03:03.561Z,20.57
2022-09-10T19:05:32.372Z,20.64
2022-09-10T19:08:00.047Z,21.18
2022-09-10T19:10:32.132Z,21.12
2022-09-10T19:13:01.013Z,21.08
2022-09-10T19:15:33.301Z,21.07
2022-09-10T19:18:06.177Z,21.35
2022-09-10T19:20:37.347Z,21.00
2022-09-10T19:23:05.743Z,20.94
2022-09-10T19:25:33.500Z,20.61
2022-09-10T19:28:01.469Z,20.96
2022-09-10T19:30:35.624Z,21.10
2022-09-10T19:33:04.498Z,20.94
2022-09-10T19:35:35.838Z,20.81
2022-09-10T19:38:15.762Z,20.69
2022-09-10T19:40:51.014Z,20.42
2022-09-10T19:43:18.327Z,20.21
2022-09-10T19:45:46.654Z,20.11
2022-09-10T19:48:14.540Z,20.33
2022-09-10T19:50:42.110Z,20.22
2022-09-10T19:53:09.606Z,20.04
2022-09-10T19:55:37.717Z,19.57
2022-09-10T19:58:06.014Z,19.79
2022-09-10T20:00:46.458Z,19.66
2022-09-10T20:03:15.496Z,19.52
2022-09-10T20:05:43.067Z,19.63
2022-09-10T20:08:10.482Z,19.58
2022-09-10T20:10:38.165Z,19.86
2022-09-10T20:13:05.853Z,19.39
2022-09-10T20:15:33.382Z,19.66
2022-09-10T20:18:01.204Z,19.51
2022-09-10T20:20:29.009Z,18.97
2022-09-10T20:22:58.251Z,19.15
2022-09-10T20:25:26.648Z,19.27
2022-09-10T20:27:55.035Z,19.43
2022-09-10T20:30:22.341Z,18.92
2022-09-10T20:32:50.411Z,19.38
2022-09-10T20:35:17.732Z,19.30
2022-09-10T20:37:48.823Z,19.20
2022-09-10T20:40:18.859Z,19.49
2022-09-10T20:42:46.278Z,19.32
2022-09-10T20:45:13.617Z,19.47
2022-09-10T20:47:43.096Z,19.47
2022-09-10T20:50:12.828Z,19.52
2022-09-10T20:52:42.343Z,19.51
2022-09-10T20:55:10.409Z,19.77
2022-09-10T20:57:37.743Z,19.65
2022-09-10T21:00:09.413Z,19.83
2022-09-10T21:02:37.064Z,19.60
2022-09-10T21:05:05.577Z,19.72
2022-09-10T21:07:34.493Z,19.13
2022-09-10T21:10:02.079Z,19.24
2022-09-10T21:12:30.003Z,19.10
2022-09-10T21:14:57.892Z,19.27
2022-09-10T21:17:25.528Z,19.22
2022-09-10T21:19:53.730Z,19.41
2022-09-10T21:22:21.145Z,19.52
2022-09-10T21:24:48.789Z,19.46
2022-09-10T21:27:16.208Z,19.07
2022-09-10T21:29:43.672Z,19.00
2022-09-10T21:32:11.262Z,19.15
2022-09-10T21:34:39.829Z,19.34
2022-09-10T21:37:07.130Z,19.51
2022-09-10T21:39:34.866Z,19.54
2022-09-10T21:42:03.888Z,19.39
2022-09-10T21:44:32.209Z,18.82
2022-09-10T21:47:00.102Z,18.92
2022-09-10T21:49:27.419Z,18.88
2022-09-10T21:51:54.946Z,19.10
2022-09-10T21:54:23.071Z,19.37
2022-09-10T21:56:51.009Z,19.06
2022-09-10T21:59:18.683Z,19.27
2022-09-10T22:01:46.933Z,19.19
2022-09-10T22:04:19.941Z,18.92
2022-09-10T22:06:49.019Z,18.80
2022-09-10T22:09:16.885Z,18.56
2022-09-10T22:11:46.885Z,18.71
2022-09-10T22:14:16.473Z,18.33
2022-09-10T22:16:45.489Z,18.69
2022-09-10T22:19:15.253Z,18.84
2022-09-10T22:21:42.682Z,18.59
2022-09-10T22:24:11.639Z,18.67
2022-09-10T22:26:42.433Z,18.56
2022-09-10T22:29:10.865Z,18.42
2022-09-10T22:31:38.495Z,18.30
2022-09-10T22:34:13.553Z,17.96
2022-09-10T22:36:42.869Z,17.91
2022-09-10T22:39:15.837Z,18.16
2022-09-10T22:41:44.303Z,18.14
2022-09-10T22:44:11.678Z,17.81
2022-09-10T22:46:40.045Z,17.80
2022-09-10T22:49:07.929Z,17.88
2022-09-10T22:51:37.426Z,17.93
2022-09-10T22:54:05.310Z,17.82
2022-09-10T22:56:33.411Z,17.96
2022-09-10T22:59:00.740Z,17.72
2022-09-10T23:01:31.044Z,17.89
2022-09-10T23:04:00.668Z,18.23
2022-09-10T23:06:31.030Z,18.00
2022-09-10T23:09:05.277Z,18.28
2022-09-10T23:11:33.097Z,17.23
2022-09-10T23:14:03.434Z,17.99
2022-09-10T23:16:35.773Z,18.32
2022-09-10T23:19:06.286Z,18.43
2022-09-10T23:21:35.193Z,18.18
2022-09-10T23:24:06.697Z,18.08
2022-09-10T23:26:34.037Z,18.24
2022-09-10T23:29:04.278Z,17.53
2022-09-10T23:31:33.641Z,17.94
2022-09-10T23:34:04.017Z,18.02
2022-09-10T23:36:33.825Z,18.02
2022-09-10T23:39:04.573Z,17.79
2022-09-10T23:41:33.125Z,17.99
2022-09-10T23:44:00.592Z,18.13
2022-09-10T23:46:27.944Z,17.78
2022-09-10T23:48:55.545Z,17.71
2022-09-10T23:51:23.053Z,17.77
2022-09-10T23:53:50.425Z,17.70
2022-09-10T23:56:19.850Z,17.86
2022-09-10T23:58:48.564Z,16.56
